createdAt,value
2018-06-11T00:03:01.905Z,96245.42
2018-06-11T00:06:26.240Z,96231.69
2018-06-11T00:09:51.049Z,96240.12
2018-06-11T00:13:15.671Z,96234.38
2018-06-11T00:16:40.051Z,96241.45
2018-06-11T00:20:04.853Z,96245.80
2018-06-11T00:23:29.549Z,96244.78
2018-06-11T00:26:54.169Z,96244.28
2018-06-11T00:30:18.855Z,96237.36
2018-06-11T00:33:43.546Z,96234.78
2018-06-11T00:37:08.198Z,96234.75
2018-06-11T00:40:32.901Z,96229.73
2018-06-11T00:43:57.541Z,96226.98
2018-06-11T00:47:22.265Z,96223.29
2018-06-11T00:50:46.956Z,96218.84
2018-06-11T00:54:11.613Z,96212.63
2018-06-11T00:57:36.253Z,96210.52
2018-06-11T01:01:00.988Z,96213.09
2018-06-11T01:04:25.653Z,96217.44
2018-06-11T01:07:50.379Z,96209.51
2018-06-11T01:11:15.162Z,96209.20
2018-06-11T01:14:39.859Z,96204.25
2018-06-11T01:18:04.550Z,96211.88
2018-06-11T01:21:29.266Z,96206.69
2018-06-11T01:24:53.911Z,96209.14
2018-06-11T01:28:18.672Z,96208.12
2018-06-11T01:31:43.362Z,96196.45
2018-06-11T01:35:08.135Z,96184.58
2018-06-11T01:38:32.752Z,96191.41
2018-06-11T01:41:57.393Z,96191.92
2018-06-11T01:45:22.113Z,96190.60
2018-06-11T01:48:46.884Z,96178.91
2018-06-11T01:52:11.664Z,96174.44
2018-06-11T01:55:36.350Z,96170.37
2018-06-11T01:59:01.085Z,96181.27
2018-06-11T02:02:25.741Z,96177.41
2018-06-11T02:05:50.065Z,96171.31
2018-06-11T02:09:14.760Z,96167.32
2018-06-11T02:12:39.370Z,96169.09
2018-06-11T02:16:04.107Z,96169.88
2018-06-11T02:19:28.843Z,96164.69
2018-06-11T02:22:53.528Z,96179.33
2018-06-11T02:26:18.878Z,96171.62
2018-06-11T02:29:43.561Z,96179.14
2018-06-11T02:33:08.277Z,96183.08
2018-06-11T02:36:32.942Z,96171.39
2018-06-11T02:39:57.669Z,96187.03
2018-06-11T02:43:22.293Z,96181.96
2018-06-11T02:46:47.119Z,96185.55
2018-06-11T02:50:11.860Z,96179.98
2018-06-11T02:53:36.518Z,96181.17
2018-06-11T02:57:01.191Z,96179.70
2018-06-11T03:00:25.871Z,96178.95
2018-06-11T03:03:50.519Z,96178.02
2018-06-11T03:07:15.261Z,96164.66
2018-06-11T03:10:40.001Z,96157.82
2018-06-11T03:14:04.721Z,96157.56
2018-06-11T03:17:29.021Z,96155.86
2018-06-11T03:20:53.717Z,96154.28
2018-06-11T03:24:18.380Z,96148.28
2018-06-11T03:27:43.092Z,96138.52
2018-06-11T03:31:07.831Z,96128.20
2018-06-11T03:34:32.505Z,96130.89
2018-06-11T03:37:57.162Z,96128.55
2018-06-11T03:41:21.824Z,96119.98
2018-06-11T03:44:46.552Z,96122.73
2018-06-11T03:48:11.190Z,96117.36
2018-06-11T03:51:35.893Z,96102.48
2018-06-11T03:55:00.658Z,96102.55
2018-06-11T03:58:25.401Z,96116.97
2018-06-11T04:01:50.201Z,96117.12
2018-06-11T04:05:14.969Z,96122.23
2018-06-11T04:08:39.673Z,96121.55
2018-06-11T04:12:05.227Z,96139.36
2018-06-11T04:15:29.969Z,96137.63
2018-06-11T04:18:54.658Z,96141.36
2018-06-11T04:22:19.378Z,96144.03
2018-06-11T04:25:44.160Z,96139.19
2018-06-11T04:29:08.523Z,96135.31
2018-06-11T04:32:33.234Z,96139.20
2018-06-11T04:35:58.062Z,96143.78
2018-06-11T04:39:22.792Z,96143.93
2018-06-11T04:42:47.522Z,96132.26
2018-06-11T04:46:12.170Z,96136.24
2018-06-11T04:49:36.926Z,96146.98
2018-06-11T04:53:01.700Z,96142.52
2018-06-11T04:56:26.384Z,96135.45
2018-06-11T04:59:51.067Z,96135.12
2018-06-11T05:03:15.513Z,96140.80
2018-06-11T05:06:40.331Z,96144.37
2018-06-11T05:10:05.228Z,96142.42
2018-06-11T05:13:29.998Z,96141.08
2018-06-11T05:16:54.715Z,96136.02
2018-06-11T05:20:19.428Z,96139.23
2018-06-11T05:23:44.237Z,96132.80
2018-06-11T05:27:08.913Z,96135.44
2018-06-11T05:30:33.713Z,96143.65
2018-06-11T05:33:58.535Z,96145.93
2018-06-11T05:37:23.482Z,96147.39
2018-06-11T05:40:48.210Z,96145.61
2018-06-11T05:44:12.928Z,96142.05
2018-06-11T05:47:37.660Z,96145.84
2018-06-11T05:51:01.973Z,96141.84
2018-06-11T05:54:26.613Z,96132.13
2018-06-11T05:57:51.263Z,96130.00
2018-06-11T06:01:15.634Z,96142.98
2018-06-11T06:04:40.616Z,96141.83
2018-06-11T06:08:05.150Z,96142.07
2018-06-11T06:11:30.167Z,96148.70
2018-06-11T06:14:54.905Z,96142.13
2018-06-11T06:18:19.250Z,96144.08
2018-06-11T06:21:43.958Z,96145.61
2018-06-11T06:25:08.630Z,96147.83
2018-06-11T06:28:33.314Z,96155.37
2018-06-11T06:31:58.188Z,96157.27
2018-06-11T06:35:22.939Z,96145.31
2018-06-11T06:38:47.668Z,96150.28
2018-06-11T06:42:12.412Z,96149.52
2018-06-11T06:45:37.183Z,96143.20
2018-06-11T06:49:01.894Z,96139.53
2018-06-11T06:52:28.543Z,96136.44
2018-06-11T06:55:53.153Z,96132.94
2018-06-11T06:59:17.964Z,96126.95
2018-06-11T07:02:43.979Z,96120.05
2018-06-11T07:06:08.787Z,96112.94
2018-06-11T07:09:33.486Z,96110.16
2018-06-11T07:12:59.227Z,96110.28
2018-06-11T07:16:23.947Z,96107.66
2018-06-11T07:19:48.657Z,96117.91
2018-06-11T07:23:13.311Z,96117.44
2018-06-11T07:26:38.031Z,96130.80
2018-06-11T07:30:02.486Z,96140.21
2018-06-11T07:33:27.173Z,96139.72
2018-06-11T07:36:52.381Z,96141.06
2018-06-11T07:40:17.888Z,96123.19
2018-06-11T07:43:42.756Z,96122.20
2018-06-11T07:47:07.427Z,96122.34
2018-06-11T07:50:32.380Z,96118.15
2018-06-11T07:53:57.200Z,96125.87
2018-06-11T07:57:21.941Z,96126.61
2018-06-11T08:00:46.593Z,96125.97
2018-06-11T08:04:11.190Z,96116.02
2018-06-11T08:07:35.934Z,96116.95
2018-06-11T08:11:00.696Z,96119.48
2018-06-11T08:14:25.556Z,96109.34
2018-06-11T08:17:50.542Z,96110.08
2018-06-11T08:21:15.272Z,96113.72
2018-06-11T08:24:39.561Z,96107.96
2018-06-11T08:28:04.262Z,96109.52
2018-06-11T08:31:28.616Z,96111.06
2018-06-11T08:34:53.285Z,96106.23
2018-06-11T08:38:17.932Z,96105.17
2018-06-11T08:41:42.592Z,96099.27
2018-06-11T08:45:07.261Z,96095.15
2018-06-11T08:48:31.926Z,96091.87
2018-06-11T08:51:56.261Z,96097.95
2018-06-11T08:55:21.052Z,96110.69
2018-06-11T08:58:45.817Z,96117.45
2018-06-11T09:02:10.562Z,96123.52
2018-06-11T09:05:34.881Z,96131.49
2018-06-11T09:08:59.467Z,96129.03
2018-06-11T09:12:25.224Z,96124.39
2018-06-11T09:15:49.854Z,96117.31
2018-06-11T09:19:15.528Z,96106.05
2018-06-11T09:22:40.405Z,96105.91
2018-06-11T09:26:06.507Z,96107.30
2018-06-11T09:29:31.304Z,96102.66
2018-06-11T09:32:57.012Z,96106.93
2018-06-11T09:36:21.716Z,96100.72
2018-06-11T09:39:46.516Z,96097.52
2018-06-11T09:43:12.991Z,96088.48
2018-06-11T09:46:37.722Z,96089.25
2018-06-11T09:50:02.754Z,96085.51
2018-06-11T09:53:28.436Z,96082.71
2018-06-11T09:56:53.632Z,96078.90
2018-06-11T10:00:23.660Z,96076.30
2018-06-11T10:03:48.417Z,96089.92
2018-06-11T10:07:13.119Z,96080.67
2018-06-11T10:10:38.333Z,96082.94
2018-06-11T10:14:03.124Z,96088.92
2018-06-11T10:17:28.614Z,96093.08
2018-06-11T10:20:54.438Z,96095.02
2018-06-11T10:24:19.511Z,96090.77
2018-06-11T10:27:44.887Z,96088.38
2018-06-11T10:31:10.783Z,96093.56
2018-06-11T10:34:35.460Z,96092.33
2018-06-11T10:38:00.310Z,96100.27
2018-06-11T10:41:25.236Z,96099.37
2018-06-11T10:44:49.879Z,96105.34
2018-06-11T10:48:14.557Z,96111.30
2018-06-11T10:51:39.310Z,96095.12
2018-06-11T10:55:05.105Z,96079.93
2018-06-11T10:58:29.821Z,96098.75
2018-06-11T11:01:54.477Z,96095.45
2018-06-11T11:05:19.128Z,96102.70
2018-06-11T11:08:43.900Z,96126.50
2018-06-11T11:12:08.573Z,96134.75
2018-06-11T11:15:33.218Z,96122.55
2018-06-11T11:18:57.528Z,96115.63
2018-06-11T11:22:22.148Z,96111.14
2018-06-11T11:25:46.924Z,96093.16
2018-06-11T11:29:11.597Z,96076.66
2018-06-11T11:32:36.398Z,96070.36
2018-06-11T11:36:01.084Z,96067.82
2018-06-11T11:39:25.760Z,96075.23
2018-06-11T11:42:50.544Z,96109.82
2018-06-11T11:46:15.205Z,96141.24
2018-06-11T11:49:39.950Z,96155.09
2018-06-11T11:53:04.329Z,96148.13
2018-06-11T11:56:28.959Z,96140.80
2018-06-11T11:59:53.570Z,96140.34
2018-06-11T12:03:18.269Z,96133.09
2018-06-11T12:06:43.026Z,96103.53
2018-06-11T12:10:07.828Z,96102.08
2018-06-11T12:13:32.471Z,96094.73
2018-06-11T12:16:57.168Z,96086.73
2018-06-11T12:20:21.853Z,96092.98
2018-06-11T12:23:46.512Z,96098.11
2018-06-11T12:27:11.131Z,96091.34
2018-06-11T12:30:35.718Z,96082.28
2018-06-11T12:34:00.453Z,96083.03
2018-06-11T12:37:25.214Z,96073.69
2018-06-11T12:40:49.838Z,96077.91
2018-06-11T12:44:14.549Z,96074.92
2018-06-11T12:47:39.291Z,96076.60
2018-06-11T12:51:09.737Z,96078.98
2018-06-11T12:54:34.342Z,96083.41
2018-06-11T12:57:59.000Z,96074.28
2018-06-11T13:01:23.288Z,96064.62
2018-06-11T13:04:47.962Z,96071.56
2018-06-11T13:08:12.363Z,96073.58
2018-06-11T13:11:37.090Z,96079.95
2018-06-11T13:15:01.807Z,96079.42
2018-06-11T13:18:26.148Z,96069.63
2018-06-11T13:21:50.803Z,96062.24
2018-06-11T13:25:15.478Z,96063.97
2018-06-11T13:28:40.217Z,96081.64
2018-06-11T13:32:04.682Z,96081.38
2018-06-11T13:35:29.546Z,96083.13
2018-06-11T13:38:55.054Z,96083.19
2018-06-11T13:42:19.750Z,96070.73
2018-06-11T13:45:45.393Z,96065.69
2018-06-11T13:49:10.108Z,96072.49
2018-06-11T13:52:34.716Z,96074.03
2018-06-11T13:55:59.401Z,96074.86
2018-06-11T13:59:24.568Z,96072.84
2018-06-11T14:02:49.301Z,96074.38
2018-06-11T14:06:13.656Z,96073.14
2018-06-11T14:09:38.406Z,96064.00
2018-06-11T14:13:03.562Z,96075.56
2018-06-11T14:16:28.293Z,96073.66
2018-06-11T14:19:53.005Z,96072.27
2018-06-11T14:23:17.338Z,96088.59
2018-06-11T14:26:42.043Z,96095.88
2018-06-11T14:30:06.809Z,96096.48
2018-06-11T14:33:31.443Z,96108.06
2018-06-11T14:36:56.101Z,96118.00
2018-06-11T14:40:20.820Z,96117.50
2018-06-11T14:43:45.759Z,96124.31
2018-06-11T14:47:10.454Z,96119.95
2018-06-11T14:50:35.196Z,96111.72
2018-06-11T14:53:59.975Z,96108.89
2018-06-11T14:57:24.659Z,96114.66
2018-06-11T15:00:49.322Z,96121.14
2018-06-11T15:04:14.041Z,96126.77
2018-06-11T15:07:38.659Z,96124.14
2018-06-11T15:11:03.356Z,96128.03
2018-06-11T15:14:28.197Z,96117.81
2018-06-11T15:17:53.037Z,96126.94
2018-06-11T15:21:18.391Z,96126.92
2018-06-11T15:24:43.459Z,96132.28
2018-06-11T15:28:08.229Z,96124.98
2018-06-11T15:31:32.991Z,96102.88
2018-06-11T15:34:57.821Z,96089.13
2018-06-11T15:38:22.811Z,96068.37
2018-06-11T15:41:47.814Z,96054.62
2018-06-11T15:45:13.796Z,96053.30
2018-06-11T15:48:38.497Z,96053.97
2018-06-11T15:52:03.508Z,96047.84
2018-06-11T15:55:28.968Z,96039.81
2018-06-11T15:58:53.752Z,96036.16
2018-06-11T16:02:18.459Z,96029.96
2018-06-11T16:05:43.679Z,96028.56
2018-06-11T16:09:08.863Z,96021.66
2018-06-11T16:12:35.384Z,96006.58
2018-06-11T16:16:00.293Z,96014.36
2018-06-11T16:19:24.604Z,96015.25
2018-06-11T16:22:49.262Z,96008.48
2018-06-11T16:26:13.580Z,96002.86
2018-06-11T16:29:38.270Z,96008.09
2018-06-11T16:33:03.173Z,96013.08
2018-06-11T16:36:27.947Z,96018.84
2018-06-11T16:39:52.633Z,96028.59
2018-06-11T16:43:17.339Z,96023.00
2018-06-11T16:46:43.264Z,96015.50
2018-06-11T16:50:10.989Z,96011.72
2018-06-11T16:53:37.829Z,96019.08
2018-06-11T16:57:03.606Z,96008.12
2018-06-11T17:00:28.299Z,95998.28
2018-06-11T17:03:54.094Z,95995.13
2018-06-11T17:07:19.031Z,95985.94
2018-06-11T17:10:43.884Z,95998.51
2018-06-11T17:14:09.064Z,95997.37
2018-06-11T17:17:33.507Z,96003.44
2018-06-11T17:20:57.878Z,96007.80
2018-06-11T17:24:25.047Z,96016.28
2018-06-11T17:27:50.652Z,96015.17
2018-06-11T17:31:16.900Z,96018.47
2018-06-11T17:34:42.568Z,96022.69
2018-06-11T17:38:07.263Z,96023.80
2018-06-11T17:41:31.983Z,96033.53
2018-06-11T17:44:56.710Z,96036.63
2018-06-11T17:48:21.389Z,96032.87
2018-06-11T17:51:46.128Z,96040.52
2018-06-11T17:55:10.852Z,96048.89
2018-06-11T17:58:35.345Z,96044.14
2018-06-11T18:02:00.400Z,96043.61
2018-06-11T18:05:24.925Z,96043.27
2018-06-11T18:08:49.844Z,96036.20
2018-06-11T18:12:14.604Z,96043.48
2018-06-11T18:15:40.008Z,96043.38
2018-06-11T18:19:04.807Z,96044.25
2018-06-11T18:22:32.091Z,96038.83
2018-06-11T18:25:58.561Z,96027.97
2018-06-11T18:29:23.361Z,96030.20
2018-06-11T18:32:49.382Z,96032.67
2018-06-11T18:36:14.174Z,96018.48
2018-06-11T18:39:39.305Z,96021.20
2018-06-11T18:43:03.917Z,96030.76
2018-06-11T18:46:28.794Z,96035.50
2018-06-11T18:49:54.169Z,96029.95
2018-06-11T18:53:19.527Z,96032.38
2018-06-11T18:56:45.851Z,96037.75
2018-06-11T19:00:10.861Z,96033.70
2018-06-11T19:03:36.646Z,96029.44
2018-06-11T19:07:01.394Z,96027.73
2018-06-11T19:10:26.481Z,96022.05
2018-06-11T19:13:51.242Z,96027.28
2018-06-11T19:17:18.723Z,96029.26
2018-06-11T19:20:43.561Z,96035.05
2018-06-11T19:24:10.583Z,96045.05
2018-06-11T19:27:35.567Z,96037.77
2018-06-11T19:31:00.866Z,96040.46
2018-06-11T19:34:25.877Z,96043.59
2018-06-11T19:37:50.818Z,96044.97
2018-06-11T19:41:15.670Z,96045.28
2018-06-11T19:44:40.500Z,96058.06
2018-06-11T19:48:05.440Z,96052.78
2018-06-11T19:51:30.145Z,96054.59
2018-06-11T19:54:54.844Z,96061.22
2018-06-11T19:58:19.593Z,96067.61
2018-06-11T20:01:44.359Z,96072.30
2018-06-11T20:05:09.153Z,96073.38
2018-06-11T20:08:33.796Z,96076.46
2018-06-11T20:11:58.621Z,96080.47
2018-06-11T20:15:24.112Z,96078.55
2018-06-11T20:18:48.802Z,96074.42
2018-06-11T20:22:14.468Z,96068.74
2018-06-11T20:25:39.265Z,96072.09
2018-06-11T20:29:04.126Z,96072.51
2018-06-11T20:32:28.872Z,96067.89
2018-06-11T20:35:53.187Z,96073.42
2018-06-11T20:39:17.934Z,96074.99
2018-06-11T20:42:42.845Z,96082.16
2018-06-11T20:46:07.193Z,96074.95
2018-06-11T20:49:33.199Z,96072.03
2018-06-11T20:52:59.043Z,96076.95
2018-06-11T20:56:25.141Z,96070.95
2018-06-11T20:59:50.912Z,96067.16
2018-06-11T21:03:16.007Z,96082.29
2018-06-11T21:06:41.200Z,96079.69
2018-06-11T21:10:06.311Z,96079.35
2018-06-11T21:13:31.802Z,96075.64
2018-06-11T21:16:56.802Z,96076.13
2018-06-11T21:20:21.981Z,96069.45
2018-06-11T21:23:46.720Z,96064.12
2018-06-11T21:27:11.524Z,96067.34
2018-06-11T21:30:36.238Z,96067.20
2018-06-11T21:34:00.983Z,96064.63
2018-06-11T21:37:25.867Z,96068.58
2018-06-11T21:40:50.574Z,96079.25
2018-06-11T21:44:15.394Z,96073.46
2018-06-11T21:47:40.114Z,96076.42
2018-06-11T21:51:04.820Z,96083.13
2018-06-11T21:54:29.772Z,96084.56
2018-06-11T21:57:54.487Z,96078.81
2018-06-11T22:01:19.234Z,96087.09
2018-06-11T22:04:43.521Z,96088.20
2018-06-11T22:08:09.398Z,96094.96
2018-06-11T22:11:34.191Z,96088.67
2018-06-11T22:14:58.893Z,96082.00
2018-06-11T22:18:23.595Z,96077.74
2018-06-11T22:21:48.318Z,96081.97
2018-06-11T22:25:13.047Z,96082.15
2018-06-11T22:28:37.813Z,96079.17
2018-06-11T22:32:02.589Z,96078.19
2018-06-11T22:35:27.320Z,96070.92
2018-06-11T22:38:52.055Z,96064.23
2018-06-11T22:42:16.810Z,96061.05
2018-06-11T22:45:41.560Z,96063.80
2018-06-11T22:49:06.021Z,96052.96
2018-06-11T22:52:30.727Z,96045.16
2018-06-11T22:55:56.381Z,96040.31
2018-06-11T22:59:21.039Z,96048.48
2018-06-11T23:02:45.681Z,96060.08
2018-06-11T23:06:10.449Z,96063.02
2018-06-11T23:09:35.145Z,96069.25
2018-06-11T23:12:59.785Z,96062.16
2018-06-11T23:16:24.542Z,96066.25
2018-06-11T23:19:49.191Z,96072.03
2018-06-11T23:23:13.893Z,96065.77
2018-06-11T23:26:38.629Z,96070.95
2018-06-11T23:30:03.394Z,96069.20
2018-06-11T23:33:28.095Z,96066.49
2018-06-11T23:36:52.879Z,96068.33
2018-06-11T23:40:17.583Z,96077.48
2018-06-11T23:43:42.200Z,96084.81
2018-06-11T23:47:06.967Z,96087.27
2018-06-11T23:50:31.608Z,96074.81
2018-06-11T23:53:56.271Z,96069.06
2018-06-11T23:57:20.893Z,96069.27
